sensor_id;sensor_type;location;lat;lon;timestamp;temperature;humidity
49042;DHT22;34859;51.608;11.462;2023-04-24T00:02:27;11.60;99.90
49042;DHT22;34859;51.608;11.462;2023-04-24T00:04:53;11.50;99.90
49042;DHT22;34859;51.608;11.462;2023-04-24T00:07:18;11.50;99.90
49042;DHT22;34859;51.608;11.462;2023-04-24T00:09:46;11.50;99.90
49042;DHT22;34859;51.608;11.462;2023-04-24T00:12:12;11.50;99.90
49042;DHT22;34859;51.608;11.462;2023-04-24T00:14:38;11.40;99.90
49042;DHT22;34859;51.608;11.462;2023-04-24T00:17:04;11.40;99.90
49042;DHT22;34859;51.608;11.462;2023-04-24T00:19:30;11.50;99.90
49042;DHT22;34859;51.608;11.462;2023-04-24T00:22:00;11.50;99.90
49042;DHT22;34859;51.608;11.462;2023-04-24T00:24:27;11.60;99.90
49042;DHT22;34859;51.608;11.462;2023-04-24T00:26:53;11.50;99.90
49042;DHT22;34859;51.608;11.462;2023-04-24T00:29:19;11.50;99.90
49042;DHT22;34859;51.608;11.462;2023-04-24T00:31:46;11.50;99.90
49042;DHT22;34859;51.608;11.462;2023-04-24T00:34:12;11.50;99.90
49042;DHT22;34859;51.608;11.462;2023-04-24T00:36:39;11.50;99.90
49042;DHT22;34859;51.608;11.462;2023-04-24T00:39:07;11.50;99.90
49042;DHT22;34859;51.608;11.462;2023-04-24T00:41:34;11.50;99.90
49042;DHT22;34859;51.608;11.462;2023-04-24T00:44:00;11.40;99.90
49042;DHT22;34859;51.608;11.462;2023-04-24T00:46:27;11.30;99.90
49042;DHT22;34859;51.608;11.462;2023-04-24T00:48:53;11.30;99.90
49042;DHT22;34859;51.608;11.462;2023-04-24T00:51:19;11.30;99.90
49042;DHT22;34859;51.608;11.462;2023-04-24T00:53:46;11.40;99.90
49042;DHT22;34859;51.608;11.462;2023-04-24T00:56:12;11.40;99.90
49042;DHT22;34859;51.608;11.462;2023-04-24T00:58:38;11.40;99.90
49042;DHT22;34859;51.608;11.462;2023-04-24T01:01:40;11.40;99.90
49042;DHT22;34859;51.608;11.462;2023-04-24T01:05:16;11.40;99.90
49042;DHT22;34859;51.608;11.462;2023-04-24T01:08:55;11.40;99.90
49042;DHT22;34859;51.608;11.462;2023-04-24T01:12:28;11.30;99.90
49042;DHT22;34859;51.608;11.462;2023-04-24T01:15:56;11.30;99.90
49042;DHT22;34859;51.608;11.462;2023-04-24T01:19:29;11.20;99.90
49042;DHT22;34859;51.608;11.462;2023-04-24T01:22:58;11.20;99.90
49042;DHT22;34859;51.608;11.462;2023-04-24T01:26:30;11.10;99.90
49042;DHT22;34859;51.608;11.462;2023-04-24T01:29:58;11.10;99.90
49042;DHT22;34859;51.608;11.462;2023-04-24T01:33:27;11.10;99.90
49042;DHT22;34859;51.608;11.462;2023-04-24T01:36:41;11.10;99.90
49042;DHT22;34859;51.608;11.462;2023-04-24T01:40:08;11.00;99.90
49042;DHT22;34859;51.608;11.462;2023-04-24T01:43:43;11.00;99.90
49042;DHT22;34859;51.608;11.462;2023-04-24T01:47:11;10.90;99.90
49042;DHT22;34859;51.608;11.462;2023-04-24T01:50:42;10.90;99.90
49042;DHT22;34859;51.608;11.462;2023-04-24T01:54:12;10.90;99.90
49042;DHT22;34859;51.608;11.462;2023-04-24T01:57:00;10.80;99.90
49042;DHT22;34859;51.608;11.462;2023-04-24T01:59:28;10.70;99.90
49042;DHT22;34859;51.608;11.462;2023-04-24T02:01:55;10.70;99.90
49042;DHT22;34859;51.608;11.462;2023-04-24T02:04:20;10.80;99.90
49042;DHT22;34859;51.608;11.462;2023-04-24T02:06:46;10.80;99.90
49042;DHT22;34859;51.608;11.462;2023-04-24T02:09:12;10.80;99.90
49042;DHT22;34859;51.608;11.462;2023-04-24T02:11:39;10.80;99.90
49042;DHT22;34859;51.608;11.462;2023-04-24T02:14:04;10.80;99.90
49042;DHT22;34859;51.608;11.462;2023-04-24T02:16:30;10.80;99.90
49042;DHT22;34859;51.608;11.462;2023-04-24T02:18:58;10.90;99.90
49042;DHT22;34859;51.608;11.462;2023-04-24T02:21:23;10.80;99.90
49042;DHT22;34859;51.608;11.462;2023-04-24T02:23:49;10.90;99.90
49042;DHT22;34859;51.608;11.462;2023-04-24T02:26:15;10.90;99.90
49042;DHT22;34859;51.608;11.462;2023-04-24T02:28:40;10.90;99.90
49042;DHT22;34859;51.608;11.462;2023-04-24T02:31:08;10.90;99.90
49042;DHT22;34859;51.608;11.462;2023-04-24T02:33:34;10.90;99.90
49042;DHT22;34859;51.608;11.462;2023-04-24T02:36:01;10.90;99.90
49042;DHT22;34859;51.608;11.462;2023-04-24T02:38:28;10.90;99.90
49042;DHT22;34859;51.608;11.462;2023-04-24T02:40:55;10.90;99.90
49042;DHT22;34859;51.608;11.462;2023-04-24T02:43:20;10.90;99.90
49042;DHT22;34859;51.608;11.462;2023-04-24T02:45:47;11.00;99.90
49042;DHT22;34859;51.608;11.462;2023-04-24T02:48:12;11.00;99.90
49042;DHT22;34859;51.608;11.462;2023-04-24T02:50:38;11.00;99.90
49042;DHT22;34859;51.608;11.462;2023-04-24T02:53:04;11.00;99.90
49042;DHT22;34859;51.608;11.462;2023-04-24T02:55:30;11.00;99.90
49042;DHT22;34859;51.608;11.462;2023-04-24T02:57:57;11.00;99.90
49042;DHT22;34859;51.608;11.462;2023-04-24T03:00:22;11.00;99.90
49042;DHT22;34859;51.608;11.462;2023-04-24T03:02:48;11.00;99.90
49042;DHT22;34859;51.608;11.462;2023-04-24T03:05:15;10.90;99.90
49042;DHT22;34859;51.608;11.462;2023-04-24T03:07:40;11.00;99.90
49042;DHT22;34859;51.608;11.462;2023-04-24T03:10:07;11.00;99.90
49042;DHT22;34859;51.608;11.462;2023-04-24T03:12:52;10.90;99.90
49042;DHT22;34859;51.608;11.462;2023-04-24T03:15:18;10.90;99.90
49042;DHT22;34859;51.608;11.462;2023-04-24T03:17:43;10.80;99.90
49042;DHT22;34859;51.608;11.462;2023-04-24T03:20:09;10.80;99.90
49042;DHT22;34859;51.608;11.462;2023-04-24T03:22:35;10.80;99.90
49042;DHT22;34859;51.608;11.462;2023-04-24T03:25:00;10.70;99.90
49042;DHT22;34859;51.608;11.462;2023-04-24T03:27:28;10.70;99.90
49042;DHT22;34859;51.608;11.462;2023-04-24T03:29:53;10.80;99.90
49042;DHT22;34859;51.608;11.462;2023-04-24T03:32:21;10.80;99.90
49042;DHT22;34859;51.608;11.462;2023-04-24T03:34:51;10.80;99.90
49042;DHT22;34859;51.608;11.462;2023-04-24T03:37:17;10.80;99.90
49042;DHT22;34859;51.608;11.462;2023-04-24T03:39:42;10.80;99.90
49042;DHT22;34859;51.608;11.462;2023-04-24T03:42:08;10.80;99.90
49042;DHT22;34859;51.608;11.462;2023-04-24T03:44:34;10.80;99.90
49042;DHT22;34859;51.608;11.462;2023-04-24T03:47:00;10.80;99.90
49042;DHT22;34859;51.608;11.462;2023-04-24T03:49:30;10.80;99.90
49042;DHT22;34859;51.608;11.462;2023-04-24T03:51:56;10.80;99.90
49042;DHT22;34859;51.608;11.462;2023-04-24T03:54:22;10.80;99.90
49042;DHT22;34859;51.608;11.462;2023-04-24T03:56:48;10.80;99.90
49042;DHT22;34859;51.608;11.462;2023-04-24T03:59:13;10.80;99.90
49042;DHT22;34859;51.608;11.462;2023-04-24T04:01:39;10.80;99.90
49042;DHT22;34859;51.608;11.462;2023-04-24T04:04:05;10.70;99.90
49042;DHT22;34859;51.608;11.462;2023-04-24T04:06:31;10.70;99.90
49042;DHT22;34859;51.608;11.462;2023-04-24T04:08:57;10.60;99.90
49042;DHT22;34859;51.608;11.462;2023-04-24T04:11:23;10.40;99.90
49042;DHT22;34859;51.608;11.462;2023-04-24T04:14:08;10.30;99.90
49042;DHT22;34859;51.608;11.462;2023-04-24T04:16:54;10.40;99.90
49042;DHT22;34859;51.608;11.462;2023-04-24T04:19:39;10.40;99.90
49042;DHT22;34859;51.608;11.462;2023-04-24T04:22:26;10.40;99.90
49042;DHT22;34859;51.608;11.462;2023-04-24T04:25:11;10.40;99.90
49042;DHT22;34859;51.608;11.462;2023-04-24T04:27:38;10.50;99.90
49042;DHT22;34859;51.608;11.462;2023-04-24T04:30:08;10.60;99.90
49042;DHT22;34859;51.608;11.462;2023-04-24T04:32:35;10.60;99.90
49042;DHT22;34859;51.608;11.462;2023-04-24T04:35:00;10.70;99.90
49042;DHT22;34859;51.608;11.462;2023-04-24T04:37:30;10.70;99.90
49042;DHT22;34859;51.608;11.462;2023-04-24T04:39:57;10.80;99.90
49042;DHT22;34859;51.608;11.462;2023-04-24T04:42:23;10.80;99.90
49042;DHT22;34859;51.608;11.462;2023-04-24T04:44:49;10.80;99.90
49042;DHT22;34859;51.608;11.462;2023-04-24T04:47:17;10.70;99.90
49042;DHT22;34859;51.608;11.462;2023-04-24T04:50:03;10.80;99.90
49042;DHT22;34859;51.608;11.462;2023-04-24T04:52:29;10.80;99.90
49042;DHT22;34859;51.608;11.462;2023-04-24T04:54:55;10.90;99.90
49042;DHT22;34859;51.608;11.462;2023-04-24T04:57:20;10.90;99.90
49042;DHT22;34859;51.608;11.462;2023-04-24T04:59:49;11.00;99.90
49042;DHT22;34859;51.608;11.462;2023-04-24T05:02:14;11.20;99.90
49042;DHT22;34859;51.608;11.462;2023-04-24T05:04:40;11.20;99.90
49042;DHT22;34859;51.608;11.462;2023-04-24T05:07:10;11.20;99.90
49042;DHT22;34859;51.608;11.462;2023-04-24T05:09:37;11.20;99.90
49042;DHT22;34859;51.608;11.462;2023-04-24T05:12:03;11.30;99.90
49042;DHT22;34859;51.608;11.462;2023-04-24T05:14:29;11.30;99.90
49042;DHT22;34859;51.608;11.462;2023-04-24T05:16:54;11.30;99.90
49042;DHT22;34859;51.608;11.462;2023-04-24T05:19:20;11.30;99.90
49042;DHT22;34859;51.608;11.462;2023-04-24T05:21:47;11.30;99.90
49042;DHT22;34859;51.608;11.462;2023-04-24T05:24:12;11.30;99.90
49042;DHT22;34859;51.608;11.462;2023-04-24T05:26:38;11.40;99.90
49042;DHT22;34859;51.608;11.462;2023-04-24T05:29:04;11.50;99.90
49042;DHT22;34859;51.608;11.462;2023-04-24T05:31:29;11.50;99.90
49042;DHT22;34859;51.608;11.462;2023-04-24T05:33:55;11.60;99.90
49042;DHT22;34859;51.608;11.462;2023-04-24T05:36:20;11.50;99.90
49042;DHT22;34859;51.608;11.462;2023-04-24T05:38:47;11.50;99.90
49042;DHT22;34859;51.608;11.462;2023-04-24T05:41:12;11.50;99.90
49042;DHT22;34859;51.608;11.462;2023-04-24T05:43:38;11.50;99.90
49042;DHT22;34859;51.608;11.462;2023-04-24T05:46:03;11.60;99.90
49042;DHT22;34859;51.608;11.462;2023-04-24T05:48:29;11.60;99.90
49042;DHT22;34859;51.608;11.462;2023-04-24T05:50:56;11.60;99.90
49042;DHT22;34859;51.608;11.462;2023-04-24T05:53:22;11.60;99.90
49042;DHT22;34859;51.608;11.462;2023-04-24T05:55:48;11.70;99.90
49042;DHT22;34859;51.608;11.462;2023-04-24T05:58:13;11.70;99.90
49042;DHT22;34859;51.608;11.462;2023-04-24T06:00:39;11.70;99.90
49042;DHT22;34859;51.608;11.462;2023-04-24T06:03:08;11.80;99.90
49042;DHT22;34859;51.608;11.462;2023-04-24T06:05:34;11.80;99.90
49042;DHT22;34859;51.608;11.462;2023-04-24T06:08:00;11.80;99.90
49042;DHT22;34859;51.608;11.462;2023-04-24T06:10:27;11.90;99.90
49042;DHT22;34859;51.608;11.462;2023-04-24T06:12:53;12.00;99.90
49042;DHT22;34859;51.608;11.462;2023-04-24T06:15:21;12.10;99.90
49042;DHT22;34859;51.608;11.462;2023-04-24T06:17:47;12.10;99.90
49042;DHT22;34859;51.608;11.462;2023-04-24T06:20:12;12.20;99.90
49042;DHT22;34859;51.608;11.462;2023-04-24T06:22:38;12.30;99.90
49042;DHT22;34859;51.608;11.462;2023-04-24T06:25:18;12.50;99.90
49042;DHT22;34859;51.608;11.462;2023-04-24T06:28:04;12.60;99.90
49042;DHT22;34859;51.608;11.462;2023-04-24T06:30:30;12.80;99.90
49042;DHT22;34859;51.608;11.462;2023-04-24T06:32:56;12.90;99.90
49042;DHT22;34859;51.608;11.462;2023-04-24T06:35:22;12.80;99.90
49042;DHT22;34859;51.608;11.462;2023-04-24T06:37:49;12.80;99.90
49042;DHT22;34859;51.608;11.462;2023-04-24T06:40:14;12.80;99.90
49042;DHT22;34859;51.608;11.462;2023-04-24T06:42:40;12.80;99.90
49042;DHT22;34859;51.608;11.462;2023-04-24T06:45:07;12.80;99.90
49042;DHT22;34859;51.608;11.462;2023-04-24T06:47:32;12.80;99.90
49042;DHT22;34859;51.608;11.462;2023-04-24T06:49:58;12.80;99.90
49042;DHT22;34859;51.608;11.462;2023-04-24T06:52:23;12.80;99.90
49042;DHT22;34859;51.608;11.462;2023-04-24T06:54:49;12.90;99.90
49042;DHT22;34859;51.608;11.462;2023-04-24T06:57:15;12.90;99.90
49042;DHT22;34859;51.608;11.462;2023-04-24T06:59:41;12.90;99.90
49042;DHT22;34859;51.608;11.462;2023-04-24T07:02:07;12.90;99.90
49042;DHT22;34859;51.608;11.462;2023-04-24T07:04:33;12.90;99.90
49042;DHT22;34859;51.608;11.462;2023-04-24T07:06:58;12.80;99.90
49042;DHT22;34859;51.608;11.462;2023-04-24T07:09:25;12.80;99.90
49042;DHT22;34859;51.608;11.462;2023-04-24T07:11:54;12.90;99.90
49042;DHT22;34859;51.608;11.462;2023-04-24T07:14:22;12.90;99.90
49042;DHT22;34859;51.608;11.462;2023-04-24T07:16:48;12.90;99.90
49042;DHT22;34859;51.608;11.462;2023-04-24T07:19:13;12.90;99.90
49042;DHT22;34859;51.608;11.462;2023-04-24T07:21:39;12.90;99.90
49042;DHT22;34859;51.608;11.462;2023-04-24T07:24:05;12.90;99.90
49042;DHT22;34859;51.608;11.462;2023-04-24T07:26:34;13.00;99.90
49042;DHT22;34859;51.608;11.462;2023-04-24T07:29:00;12.90;99.90
49042;DHT22;34859;51.608;11.462;2023-04-24T07:31:26;13.10;99.90
49042;DHT22;34859;51.608;11.462;2023-04-24T07:33:51;13.10;99.90
49042;DHT22;34859;51.608;11.462;2023-04-24T07:36:17;13.20;99.90
49042;DHT22;34859;51.608;11.462;2023-04-24T07:38:47;13.30;99.90
49042;DHT22;34859;51.608;11.462;2023-04-24T07:41:13;13.30;99.90
49042;DHT22;34859;51.608;11.462;2023-04-24T07:43:39;13.20;99.90
49042;DHT22;34859;51.608;11.462;2023-04-24T07:46:07;13.20;99.90
49042;DHT22;34859;51.608;11.462;2023-04-24T07:48:33;13.40;99.90
49042;DHT22;34859;51.608;11.462;2023-04-24T07:50:59;13.60;99.90
49042;DHT22;34859;51.608;11.462;2023-04-24T07:53:24;13.80;99.90
49042;DHT22;34859;51.608;11.462;2023-04-24T07:55:50;13.80;99.90
49042;DHT22;34859;51.608;11.462;2023-04-24T07:58:17;13.60;99.90
49042;DHT22;34859;51.608;11.462;2023-04-24T08:00:42;13.80;99.90
49042;DHT22;34859;51.608;11.462;2023-04-24T08:03:28;13.80;99.90
49042;DHT22;34859;51.608;11.462;2023-04-24T08:05:53;13.90;99.90
49042;DHT22;34859;51.608;11.462;2023-04-24T08:08:21;14.10;99.90
49042;DHT22;34859;51.608;11.462;2023-04-24T08:10:47;14.20;99.90
49042;DHT22;34859;51.608;11.462;2023-04-24T08:13:12;14.20;99.90
49042;DHT22;34859;51.608;11.462;2023-04-24T08:15:38;14.40;99.90
49042;DHT22;34859;51.608;11.462;2023-04-24T08:18:03;14.60;99.90
49042;DHT22;34859;51.608;11.462;2023-04-24T08:20:29;14.70;99.90
49042;DHT22;34859;51.608;11.462;2023-04-24T08:22:55;14.90;99.90
49042;DHT22;34859;51.608;11.462;2023-04-24T08:25:21;15.20;99.90
49042;DHT22;34859;51.608;11.462;2023-04-24T08:27:48;15.30;99.90
49042;DHT22;34859;51.608;11.462;2023-04-24T08:30:14;15.40;99.90
49042;DHT22;34859;51.608;11.462;2023-04-24T08:32:40;15.10;99.90
49042;DHT22;34859;51.608;11.462;2023-04-24T08:35:07;15.20;99.90
49042;DHT22;34859;51.608;11.462;2023-04-24T08:37:34;14.90;99.90
49042;DHT22;34859;51.608;11.462;2023-04-24T08:40:01;14.60;99.90
49042;DHT22;34859;51.608;11.462;2023-04-24T08:42:30;14.30;99.90
49042;DHT22;34859;51.608;11.462;2023-04-24T08:44:58;14.10;99.90
49042;DHT22;34859;51.608;11.462;2023-04-24T08:47:24;14.10;99.90
49042;DHT22;34859;51.608;11.462;2023-04-24T08:49:52;14.00;99.90
49042;DHT22;34859;51.608;11.462;2023-04-24T08:52:18;14.00;99.90
49042;DHT22;34859;51.608;11.462;2023-04-24T08:54:44;13.90;99.90
49042;DHT22;34859;51.608;11.462;2023-04-24T08:57:11;13.80;99.90
49042;DHT22;34859;51.608;11.462;2023-04-24T08:59:38;13.70;99.90
49042;DHT22;34859;51.608;11.462;2023-04-24T09:02:04;13.70;99.90
49042;DHT22;34859;51.608;11.462;2023-04-24T09:04:30;13.80;99.90
49042;DHT22;34859;51.608;11.462;2023-04-24T09:06:57;13.80;99.90
49042;DHT22;34859;51.608;11.462;2023-04-24T09:09:24;13.90;99.90
49042;DHT22;34859;51.608;11.462;2023-04-24T09:11:50;14.40;99.90
49042;DHT22;34859;51.608;11.462;2023-04-24T09:14:17;14.80;99.90
49042;DHT22;34859;51.608;11.462;2023-04-24T09:16:43;14.70;99.90
49042;DHT22;34859;51.608;11.462;2023-04-24T09:19:08;14.80;99.90
49042;DHT22;34859;51.608;11.462;2023-04-24T09:21:34;14.50;99.90
49042;DHT22;34859;51.608;11.462;2023-04-24T09:24:02;14.40;99.90
49042;DHT22;34859;51.608;11.462;2023-04-24T09:26:29;14.30;99.90
49042;DHT22;34859;51.608;11.462;2023-04-24T09:29:00;14.30;99.90
49042;DHT22;34859;51.608;11.462;2023-04-24T09:31:28;14.30;99.90
49042;DHT22;34859;51.608;11.462;2023-04-24T09:33:54;14.40;99.90
49042;DHT22;34859;51.608;11.462;2023-04-24T09:36:31;14.40;99.90
49042;DHT22;34859;51.608;11.462;2023-04-24T09:39:17;14.50;99.90
49042;DHT22;34859;51.608;11.462;2023-04-24T09:41:52;14.50;99.90
49042;DHT22;34859;51.608;11.462;2023-04-24T09:44:18;14.80;99.90
49042;DHT22;34859;51.608;11.462;2023-04-24T09:46:51;14.80;99.90
49042;DHT22;34859;51.608;11.462;2023-04-24T09:49:22;15.10;99.90
49042;DHT22;34859;51.608;11.462;2023-04-24T09:51:47;15.20;99.90
49042;DHT22;34859;51.608;11.462;2023-04-24T09:54:20;15.00;99.90
49042;DHT22;34859;51.608;11.462;2023-04-24T09:56:50;15.30;99.90
49042;DHT22;34859;51.608;11.462;2023-04-24T09:59:17;15.40;99.90
49042;DHT22;34859;51.608;11.462;2023-04-24T10:01:43;15.30;99.90
49042;DHT22;34859;51.608;11.462;2023-04-24T10:06:48;14.90;99.90
49042;DHT22;34859;51.608;11.462;2023-04-24T10:09:21;14.90;99.90
49042;DHT22;34859;51.608;11.462;2023-04-24T10:11:47;14.60;99.90
49042;DHT22;34859;51.608;11.462;2023-04-24T10:14:14;14.30;99.90
49042;DHT22;34859;51.608;11.462;2023-04-24T10:16:40;14.10;99.90
49042;DHT22;34859;51.608;11.462;2023-04-24T10:19:07;13.90;99.90
49042;DHT22;34859;51.608;11.462;2023-04-24T10:21:34;14.10;99.90
49042;DHT22;34859;51.608;11.462;2023-04-24T10:23:59;14.30;99.90
49042;DHT22;34859;51.608;11.462;2023-04-24T10:26:34;14.50;99.90
49042;DHT22;34859;51.608;11.462;2023-04-24T10:29:00;14.60;99.90
49042;DHT22;34859;51.608;11.462;2023-04-24T10:31:26;14.90;99.90
49042;DHT22;34859;51.608;11.462;2023-04-24T10:33:52;15.00;99.90
49042;DHT22;34859;51.608;11.462;2023-04-24T10:36:19;15.10;99.90
49042;DHT22;34859;51.608;11.462;2023-04-24T10:38:47;15.20;99.90
49042;DHT22;34859;51.608;11.462;2023-04-24T10:41:14;15.00;99.90
49042;DHT22;34859;51.608;11.462;2023-04-24T10:43:46;14.80;99.90
49042;DHT22;34859;51.608;11.462;2023-04-24T10:46:16;14.80;99.90
49042;DHT22;34859;51.608;11.462;2023-04-24T10:48:44;14.80;99.90
49042;DHT22;34859;51.608;11.462;2023-04-24T10:51:17;14.60;99.90
49042;DHT22;34859;51.608;11.462;2023-04-24T10:53:43;14.60;99.90
49042;DHT22;34859;51.608;11.462;2023-04-24T10:56:09;15.20;99.90
49042;DHT22;34859;51.608;11.462;2023-04-24T10:58:39;15.50;99.90
49042;DHT22;34859;51.608;11.462;2023-04-24T11:01:07;15.60;99.90
49042;DHT22;34859;51.608;11.462;2023-04-24T11:03:33;15.60;99.90
49042;DHT22;34859;51.608;11.462;2023-04-24T11:06:01;15.60;99.90
49042;DHT22;34859;51.608;11.462;2023-04-24T11:08:28;15.40;99.90
49042;DHT22;34859;51.608;11.462;2023-04-24T11:13:25;15.20;99.90
49042;DHT22;34859;51.608;11.462;2023-04-24T11:18:38;15.30;99.90
49042;DHT22;34859;51.608;11.462;2023-04-24T11:21:15;15.30;99.90
49042;DHT22;34859;51.608;11.462;2023-04-24T11:23:41;15.60;99.90
49042;DHT22;34859;51.608;11.462;2023-04-24T11:26:11;16.00;99.90
49042;DHT22;34859;51.608;11.462;2023-04-24T11:28:46;16.10;99.90
49042;DHT22;34859;51.608;11.462;2023-04-24T11:33:56;16.10;99.90
49042;DHT22;34859;51.608;11.462;2023-04-24T11:36:22;16.00;99.80
49042;DHT22;34859;51.608;11.462;2023-04-24T11:38:48;15.90;98.70
49042;DHT22;34859;51.608;11.462;2023-04-24T11:41:13;16.10;99.90
49042;DHT22;34859;51.608;11.462;2023-04-24T11:43:39;16.30;97.70
49042;DHT22;34859;51.608;11.462;2023-04-24T11:46:06;16.20;97.20
49042;DHT22;34859;51.608;11.462;2023-04-24T11:48:35;16.30;98.40
49042;DHT22;34859;51.608;11.462;2023-04-24T11:51:06;16.30;98.10
49042;DHT22;34859;51.608;11.462;2023-04-24T11:53:32;16.10;97.70
49042;DHT22;34859;51.608;11.462;2023-04-24T11:56:03;15.90;97.70
49042;DHT22;34859;51.608;11.462;2023-04-24T11:58:34;15.90;98.20
49042;DHT22;34859;51.608;11.462;2023-04-24T12:00:59;15.80;98.80
49042;DHT22;34859;51.608;11.462;2023-04-24T12:03:27;15.80;98.00
49042;DHT22;34859;51.608;11.462;2023-04-24T12:06:04;15.60;97.70
49042;DHT22;34859;51.608;11.462;2023-04-24T12:08:30;15.40;98.20
49042;DHT22;34859;51.608;11.462;2023-04-24T12:10:57;15.30;99.30
49042;DHT22;34859;51.608;11.462;2023-04-24T12:13:25;15.30;98.70
49042;DHT22;34859;51.608;11.462;2023-04-24T12:15:51;15.30;99.20
49042;DHT22;34859;51.608;11.462;2023-04-24T12:18:16;15.20;98.40
49042;DHT22;34859;51.608;11.462;2023-04-24T12:20:42;15.30;99.90
49042;DHT22;34859;51.608;11.462;2023-04-24T12:23:08;15.30;99.30
49042;DHT22;34859;51.608;11.462;2023-04-24T12:25:34;15.60;99.30
49042;DHT22;34859;51.608;11.462;2023-04-24T12:30:31;16.00;99.20
49042;DHT22;34859;51.608;11.462;2023-04-24T12:32:58;16.10;99.30
49042;DHT22;34859;51.608;11.462;2023-04-24T12:35:24;16.30;98.70
49042;DHT22;34859;51.608;11.462;2023-04-24T12:37:50;15.80;98.60
49042;DHT22;34859;51.608;11.462;2023-04-24T12:40:17;16.10;98.50
49042;DHT22;34859;51.608;11.462;2023-04-24T12:42:44;16.10;98.00
49042;DHT22;34859;51.608;11.462;2023-04-24T12:45:10;15.80;98.50
49042;DHT22;34859;51.608;11.462;2023-04-24T12:47:37;15.80;99.00
49042;DHT22;34859;51.608;11.462;2023-04-24T12:50:18;15.90;99.90
49042;DHT22;34859;51.608;11.462;2023-04-24T12:53:03;15.50;99.20
49042;DHT22;34859;51.608;11.462;2023-04-24T12:55:49;15.60;99.90
49042;DHT22;34859;51.608;11.462;2023-04-24T12:58:38;15.90;99.60
49042;DHT22;34859;51.608;11.462;2023-04-24T13:01:03;15.70;99.90
49042;DHT22;34859;51.608;11.462;2023-04-24T13:03:29;15.40;99.90
49042;DHT22;34859;51.608;11.462;2023-04-24T13:05:55;15.30;99.90
49042;DHT22;34859;51.608;11.462;2023-04-24T13:08:20;15.20;99.90
49042;DHT22;34859;51.608;11.462;2023-04-24T13:10:46;15.30;99.90
49042;DHT22;34859;51.608;11.462;2023-04-24T13:13:12;15.60;99.90
49042;DHT22;34859;51.608;11.462;2023-04-24T13:15:40;15.40;99.90
49042;DHT22;34859;51.608;11.462;2023-04-24T13:18:06;15.20;99.90
49042;DHT22;34859;51.608;11.462;2023-04-24T13:20:32;15.20;99.90
49042;DHT22;34859;51.608;11.462;2023-04-24T13:22:58;15.70;99.90
49042;DHT22;34859;51.608;11.462;2023-04-24T13:25:23;16.00;99.90
49042;DHT22;34859;51.608;11.462;2023-04-24T13:27:50;15.80;99.90
49042;DHT22;34859;51.608;11.462;2023-04-24T13:30:17;15.40;99.90
49042;DHT22;34859;51.608;11.462;2023-04-24T13:32:42;15.00;99.90
49042;DHT22;34859;51.608;11.462;2023-04-24T13:35:08;15.50;99.90
49042;DHT22;34859;51.608;11.462;2023-04-24T13:37:34;15.70;99.90
49042;DHT22;34859;51.608;11.462;2023-04-24T13:39:59;15.30;99.90
49042;DHT22;34859;51.608;11.462;2023-04-24T13:42:25;14.80;99.90
49042;DHT22;34859;51.608;11.462;2023-04-24T13:44:52;14.60;99.90
49042;DHT22;34859;51.608;11.462;2023-04-24T13:47:17;14.50;99.90
49042;DHT22;34859;51.608;11.462;2023-04-24T13:49:43;14.40;99.90
49042;DHT22;34859;51.608;11.462;2023-04-24T13:52:08;14.30;99.90
49042;DHT22;34859;51.608;11.462;2023-04-24T13:54:36;14.20;99.90
49042;DHT22;34859;51.608;11.462;2023-04-24T13:57:02;14.20;99.90
49042;DHT22;34859;51.608;11.462;2023-04-24T13:59:30;14.50;99.90
49042;DHT22;34859;51.608;11.462;2023-04-24T14:01:56;14.60;99.90
49042;DHT22;34859;51.608;11.462;2023-04-24T14:04:22;14.50;99.90
49042;DHT22;34859;51.608;11.462;2023-04-24T14:06:48;14.20;99.90
49042;DHT22;34859;51.608;11.462;2023-04-24T14:09:13;13.80;99.90
49042;DHT22;34859;51.608;11.462;2023-04-24T14:11:39;13.70;99.90
49042;DHT22;34859;51.608;11.462;2023-04-24T14:14:06;13.50;99.90
49042;DHT22;34859;51.608;11.462;2023-04-24T14:16:33;13.40;99.90
49042;DHT22;34859;51.608;11.462;2023-04-24T14:19:00;13.90;99.90
49042;DHT22;34859;51.608;11.462;2023-04-24T14:21:27;14.30;99.90
49042;DHT22;34859;51.608;11.462;2023-04-24T14:23:53;14.50;99.90
49042;DHT22;34859;51.608;11.462;2023-04-24T14:26:19;14.10;99.90
49042;DHT22;34859;51.608;11.462;2023-04-24T14:28:44;13.80;99.90
49042;DHT22;34859;51.608;11.462;2023-04-24T14:31:11;13.60;99.90
49042;DHT22;34859;51.608;11.462;2023-04-24T14:33:44;13.80;99.90
49042;DHT22;34859;51.608;11.462;2023-04-24T14:36:10;14.00;99.90
49042;DHT22;34859;51.608;11.462;2023-04-24T14:38:36;13.80;99.90
49042;DHT22;34859;51.608;11.462;2023-04-24T14:41:02;13.90;99.90
49042;DHT22;34859;51.608;11.462;2023-04-24T14:43:34;14.10;99.90
49042;DHT22;34859;51.608;11.462;2023-04-24T14:46:00;13.90;99.90
49042;DHT22;34859;51.608;11.462;2023-04-24T14:48:27;13.90;99.90
49042;DHT22;34859;51.608;11.462;2023-04-24T14:50:53;13.70;99.90
49042;DHT22;34859;51.608;11.462;2023-04-24T14:53:18;13.70;99.90
49042;DHT22;34859;51.608;11.462;2023-04-24T14:55:44;13.90;99.90
49042;DHT22;34859;51.608;11.462;2023-04-24T14:58:10;13.90;99.90
49042;DHT22;34859;51.608;11.462;2023-04-24T15:00:38;13.70;99.90
49042;DHT22;34859;51.608;11.462;2023-04-24T15:03:03;13.50;99.90
49042;DHT22;34859;51.608;11.462;2023-04-24T15:05:29;13.70;99.90
49042;DHT22;34859;51.608;11.462;2023-04-24T15:07:56;13.60;99.90
49042;DHT22;34859;51.608;11.462;2023-04-24T15:10:22;13.20;99.90
49042;DHT22;34859;51.608;11.462;2023-04-24T15:12:49;13.10;99.90
49042;DHT22;34859;51.608;11.462;2023-04-24T15:15:16;13.10;99.90
49042;DHT22;34859;51.608;11.462;2023-04-24T15:17:42;13.10;99.90
49042;DHT22;34859;51.608;11.462;2023-04-24T15:20:08;12.90;99.90
49042;DHT22;34859;51.608;11.462;2023-04-24T15:22:34;12.90;99.90
49042;DHT22;34859;51.608;11.462;2023-04-24T15:24:59;12.80;99.90
49042;DHT22;34859;51.608;11.462;2023-04-24T15:27:28;13.10;99.90
49042;DHT22;34859;51.608;11.462;2023-04-24T15:30:03;13.20;99.90
49042;DHT22;34859;51.608;11.462;2023-04-24T15:32:29;13.10;99.90
49042;DHT22;34859;51.608;11.462;2023-04-24T15:34:55;13.30;99.90
49042;DHT22;34859;51.608;11.462;2023-04-24T15:37:20;13.40;99.90
49042;DHT22;34859;51.608;11.462;2023-04-24T15:39:50;13.50;99.90
49042;DHT22;34859;51.608;11.462;2023-04-24T15:42:16;13.60;99.90
49042;DHT22;34859;51.608;11.462;2023-04-24T15:44:42;13.50;99.90
49042;DHT22;34859;51.608;11.462;2023-04-24T15:47:08;13.10;99.90